Time;durP1;ratioP1;P1;durP2;ratioP2;P2;SDS_P1;SDS_P2;PMS_P1;PMS_P2;Temp;Humidity;BMP_temperature;BMP_pressure;BME280_temperature;BME280_humidity;BME280_pressure;Samples;Min_cycle;Max_cycle;Signal;HPM_P1;HPM_P2
2023/08/01 16:35:20;;;;;;;;;;;;;26.80;99518.00;;;;5087378;27;20442;-73
2023/08/01 16:40:59;;;;;;;;;;;;;26.90;99591.00;;;;5073485;27;19927;-78
2023/08/01 16:43:46;;;;;;;;;;;;;26.70;99592.00;;;;5044018;28;19932;-76
2023/08/01 16:47:28;;;;;;;3.00;1.50;;;;;27.10;99592.00;;;;5066038;27;20592;-77
2023/08/01 16:53:51;;;;;;;3.28;1.42;;;;;26.30;99607.00;;;;5086543;27;20600;-78
2023/08/01 16:56:38;;;;;;;3.05;1.40;;;;;26.10;99595.00;;;;5060621;28;20237;-72
2023/08/01 18:33:39;;;;;;;4.73;1.80;;;;;23.90;99666.00;;;;5052542;28;20543;-70
2023/08/01 18:36:27;;;;;;;3.53;1.60;;;;;23.50;67485.00;;;;5019377;28;20249;-71
2023/08/01 18:41:03;;;;;;;6.73;1.50;;;;;23.80;99684.00;;;;5102792;27;20527;-71
2023/08/01 18:43:51;;;;;;;4.70;1.40;;;;;23.90;99701.00;;;;5088479;27;20258;-75
2023/08/01 18:46:40;;;;;;;6.23;1.60;;;;;23.50;99689.00;;;;5099760;28;20251;-75
2023/08/01 18:49:28;;;;;;;1.83;1.40;;;;;23.70;99694.00;;;;5102162;28;20227;-75
2023/08/01 18:52:14;;;;;;;3.47;1.50;;;;;23.60;99689.00;;;;5117602;27;20291;-75
2023/08/01 18:55:01;;;;;;;4.30;1.30;;;;;23.50;99705.00;;;;5120363;27;20722;-74
2023/08/01 19:01:25;;;;;;;6.60;1.60;;;;;19.80;99743.00;;;;5058786;28;21090;-65
2023/08/01 19:04:12;;;;;;;1.90;1.40;;;;;19.30;99748.00;;;;5053842;28;20240;-65
2023/08/01 19:06:58;;;;;;;4.23;1.53;;;;;19.10;99741.00;;;;5014719;28;20361;-66
2023/08/01 19:09:44;;;;;;;2.60;1.80;;;;;19.00;99749.00;;;;5075209;28;20233;-64
2023/08/01 19:12:31;;;;;;;3.50;1.80;;;;;18.90;99756.00;;;;5073127;28;20238;-63
2023/08/01 19:15:18;;;;;;;3.93;1.60;;;;;18.80;99761.00;;;;5074154;27;20236;-65
2023/08/01 19:18:06;;;;;;;6.70;2.00;;;;;18.80;99767.00;;;;5066237;28;20244;-64
2023/08/01 19:20:52;;;;;;;2.87;1.60;;;;;18.70;99763.00;;;;5071400;28;20228;-67
2023/08/01 19:23:38;;;;;;;6.37;2.23;;;;;18.70;99764.00;;;;5080156;28;20977;-67
2023/08/01 19:26:25;;;;;;;3.53;1.80;;;;;18.70;99767.00;;;;5078824;28;20243;-64
2023/08/01 19:29:11;;;;;;;7.83;1.87;;;;;18.80;99770.00;;;;5076117;28;20235;-64
2023/08/01 19:31:57;;;;;;;4.90;1.70;;;;;18.80;99773.00;;;;5076164;28;20227;-65
2023/08/01 19:34:46;;;;;;;4.70;1.90;;;;;18.80;99780.00;;;;5073305;28;20282;-65
2023/08/01 19:37:32;;;;;;;3.57;1.80;;;;;18.70;99787.00;;;;5073245;28;20724;-64
2023/08/01 19:40:19;;;;;;;4.93;1.80;;;;;18.70;99774.00;;;;5068578;28;20243;-63
2023/08/01 19:43:05;;;;;;;7.57;2.20;;;;;18.70;99792.00;;;;5086881;28;20717;-65
2023/08/01 19:45:52;;;;;;;3.27;1.93;;;;;18.80;99789.00;;;;5080774;28;20300;-65
2023/08/01 19:48:38;;;;;;;3.33;2.10;;;;;18.80;99795.00;;;;5075634;28;20253;-65
2023/08/01 19:51:26;;;;;;;7.30;2.10;;;;;18.80;99783.00;;;;5080861;28;20235;-66
2023/08/01 19:54:13;;;;;;;3.27;1.87;;;;;18.70;99785.00;;;;5088856;28;20238;-65
2023/08/01 19:56:59;;;;;;;6.77;2.00;;;;;18.70;99783.00;;;;5095771;28;20608;-66
2023/08/01 19:59:47;;;;;;;5.87;2.20;;;;;18.80;99786.00;;;;5088203;28;20239;-66
2023/08/01 20:02:38;;;;;;;6.47;2.07;;;;;18.80;99785.00;;;;5078388;28;20227;-64
2023/08/01 20:05:25;;;;;;;5.77;2.30;;;;;18.80;99787.00;;;;5084447;28;20232;-64
2023/08/01 20:08:13;;;;;;;4.93;1.90;;;;;18.80;99785.00;;;;5078676;28;20700;-63
2023/08/01 20:11:01;;;;;;;3.60;1.80;;;;;18.70;99778.00;;;;5085556;28;20378;-64
2023/08/01 20:13:49;;;;;;;7.77;1.90;;;;;18.60;99788.00;;;;5059212;28;20246;-66
2023/08/01 20:16:36;;;;;;;4.73;1.90;;;;;18.70;99785.00;;;;5063872;28;20231;-67
2023/08/01 20:19:23;;;;;;;6.17;2.47;;;;;18.70;99797.00;;;;5063842;28;20248;-65
2023/08/01 20:22:11;;;;;;;7.47;2.20;;;;;18.70;99789.00;;;;5065863;28;20343;-66
2023/08/01 20:24:59;;;;;;;6.20;2.00;;;;;18.60;99782.00;;;;5071707;28;20294;-65
2023/08/01 20:27:45;;;;;;;4.00;1.80;;;;;18.70;99791.00;;;;5058611;28;20885;-65
2023/08/01 20:30:31;;;;;;;5.33;2.03;;;;;18.60;99778.00;;;;5079774;28;20578;-65
2023/08/01 20:33:20;;;;;;;6.47;2.17;;;;;18.40;99792.00;;;;5067517;28;20228;-64
2023/08/01 20:36:06;;;;;;;3.53;2.20;;;;;18.50;99789.00;;;;5064278;28;20231;-64
2023/08/01 20:38:53;;;;;;;6.83;2.00;;;;;18.40;99790.00;;;;5061309;28;20220;-64
2023/08/01 20:41:41;;;;;;;5.17;2.17;;;;;18.30;99798.00;;;;5071118;28;20744;-65
2023/08/01 20:44:27;;;;;;;5.53;2.20;;;;;18.40;99782.00;;;;5075741;28;20234;-63
2023/08/01 20:47:14;;;;;;;6.43;2.07;;;;;18.40;99779.00;;;;5079089;28;20230;-65
2023/08/01 20:50:01;;;;;;;6.30;2.00;;;;;18.40;99788.00;;;;5075383;28;20238;-64
2023/08/01 20:52:47;;;;;;;2.50;2.10;;;;;18.40;99790.00;;;;5068910;28;20228;-65
2023/08/01 20:55:34;;;;;;;8.23;2.03;;;;;18.40;99780.00;;;;5062947;28;20231;-64
2023/08/01 20:58:22;;;;;;;6.63;2.17;;;;;18.40;99791.00;;;;5062629;28;20240;-66
2023/08/01 21:01:09;;;;;;;3.03;2.03;;;;;18.40;99770.00;;;;5068009;28;20256;-66
2023/08/01 21:03:55;;;;;;;6.33;2.17;;;;;18.30;99783.00;;;;5067065;28;20309;-64
2023/08/01 21:06:41;;;;;;;4.07;2.00;;;;;18.30;99781.00;;;;5067331;28;20231;-66
2023/08/01 21:09:29;;;;;;;8.33;2.30;;;;;18.30;99783.00;;;;5059788;28;20767;-65
2023/08/01 21:12:16;;;;;;;4.00;2.20;;;;;18.30;99777.00;;;;5075192;28;20359;-64
2023/08/01 21:15:04;;;;;;;5.17;2.20;;;;;18.30;99784.00;;;;5061351;28;20261;-63
2023/08/01 21:17:50;;;;;;;3.70;2.40;;;;;18.30;99781.00;;;;5049014;28;20714;-64
2023/08/01 21:20:37;;;;;;;9.43;2.33;;;;;18.30;99788.00;;;;5060002;28;20285;-63
2023/08/01 21:23:24;;;;;;;3.97;2.17;;;;;18.40;99781.00;;;;5064254;28;20224;-65
2023/08/01 21:26:14;;;;;;;5.97;2.77;;;;;18.50;99781.00;;;;5059358;28;20236;-64
2023/08/01 21:29:02;;;;;;;4.83;2.70;;;;;18.60;99773.00;;;;5059050;28;20266;-63
2023/08/01 21:31:50;;;;;;;5.57;2.70;;;;;18.60;99772.00;;;;5062183;28;20846;-64
2023/08/01 21:34:36;;;;;;;4.60;2.40;;;;;18.60;99762.00;;;;5069961;28;20256;-65
2023/08/01 21:37:23;;;;;;;5.10;2.40;;;;;18.60;99764.00;;;;5063499;28;20327;-66
2023/08/01 21:40:09;;;;;;;4.13;2.57;;;;;18.60;99757.00;;;;5066313;28;20236;-67
2023/08/01 21:42:55;;;;;;;5.40;2.50;;;;;18.60;99754.00;;;;5064175;28;20247;-64
2023/08/01 21:45:42;;;;;;;5.57;2.63;;;;;18.60;99753.00;;;;5067923;28;20243;-67
2023/08/01 21:48:30;;;;;;;4.53;2.47;;;;;18.60;99750.00;;;;5065472;28;20804;-67
2023/08/01 21:51:16;;;;;;;7.23;2.60;;;;;18.60;99752.00;;;;5060608;28;20228;-65
2023/08/01 21:54:05;;;;;;;6.73;2.43;;;;;18.60;99757.00;;;;5059221;28;20605;-66
2023/08/01 21:56:52;;;;;;;6.40;2.40;;;;;18.60;99748.00;;;;5060150;28;20227;-64
2023/08/01 21:59:38;;;;;;;3.37;2.33;;;;;18.50;99760.00;;;;5072295;28;20236;-66
2023/08/01 22:02:24;;;;;;;7.60;2.73;;;;;18.50;99754.00;;;;5052458;28;20231;-63
2023/08/01 22:05:12;;;;;;;9.73;2.20;;;;;18.50;99750.00;;;;5053092;28;20245;-65
2023/08/01 22:07:58;;;;;;;6.00;2.57;;;;;18.40;99748.00;;;;5052487;28;20224;-65
2023/08/01 22:10:45;;;;;;;6.03;2.40;;;;;18.40;99754.00;;;;5056639;28;20224;-63
2023/08/01 22:13:31;;;;;;;6.27;2.57;;;;;18.20;99765.00;;;;5058522;28;20237;-65
2023/08/01 22:16:17;;;;;;;4.23;2.50;;;;;18.10;99765.00;;;;5060459;28;20228;-65
2023/08/01 22:19:04;;;;;;;6.13;2.50;;;;;18.10;99754.00;;;;5058507;28;20704;-66
2023/08/01 22:21:51;;;;;;;5.20;2.60;;;;;18.00;99758.00;;;;5055329;28;20301;-65
2023/08/01 22:24:39;;;;;;;5.93;2.60;;;;;17.90;99756.00;;;;5046932;28;20227;-67
2023/08/01 22:27:25;;;;;;;5.90;3.07;;;;;17.80;99764.00;;;;5061440;28;20236;-65
2023/08/01 22:30:12;;;;;;;7.07;2.70;;;;;17.70;99770.00;;;;5056633;28;20606;-64
2023/08/01 22:32:58;;;;;;;6.43;2.90;;;;;17.60;99758.00;;;;5058860;28;20311;-64
2023/08/01 22:35:46;;;;;;;6.60;2.60;;;;;17.50;99758.00;;;;5050536;28;20390;-64
2023/08/01 22:38:34;;;;;;;9.23;3.30;;;;;17.40;99755.00;;;;5053138;28;20706;-66
2023/08/01 22:41:21;;;;;;;5.27;2.57;;;;;17.30;99741.00;;;;5059583;28;20239;-65
2023/08/01 22:44:07;;;;;;;8.13;3.10;;;;;17.20;99763.00;;;;5060028;28;20228;-65
2023/08/01 22:46:54;;;;;;;7.00;3.20;;;;;17.20;99753.00;;;;5059934;28;20231;-66
2023/08/01 22:49:40;;;;;;;6.03;3.13;;;;;17.20;99752.00;;;;5057442;28;20715;-63
2023/08/01 22:52:45;;;;;;;5.10;2.90;;;;;17.00;99754.00;;;;5062692;28;20236;-64
2023/08/01 22:55:33;;;;;;;5.90;3.20;;;;;16.90;99736.00;;;;5054268;28;20300;-64
2023/08/01 22:58:20;;;;;;;5.67;3.00;;;;;16.80;99737.00;;;;5065387;28;20714;-64
2023/08/01 23:01:07;;;;;;;6.43;3.40;;;;;16.80;99741.00;;;;5066461;28;20235;-63
2023/08/01 23:03:54;;;;;;;7.40;3.00;;;;;16.80;99739.00;;;;5061499;28;20233;-65
2023/08/01 23:06:42;;;;;;;10.03;3.50;;;;;16.70;99736.00;;;;5073026;28;20725;-63
2023/08/01 23:09:29;;;;;;;6.87;3.50;;;;;16.60;99751.00;;;;5066625;28;20286;-64
2023/08/01 23:12:18;;;;;;;11.10;3.40;;;;;16.50;99747.00;;;;5050771;28;20240;-64
2023/08/01 23:15:06;;;;;;;7.30;3.43;;;;;16.60;99751.00;;;;5063072;28;20235;-63
2023/08/01 23:17:52;;;;;;;6.20;3.17;;;;;16.60;99756.00;;;;5075543;28;20227;-65
2023/08/01 23:20:40;;;;;;;9.10;3.80;;;;;16.50;99738.00;;;;5058213;28;20239;-66
2023/08/01 23:23:27;;;;;;;8.63;3.43;;;;;16.40;99751.00;;;;5071758;28;20243;-66
2023/08/01 23:26:13;;;;;;;10.53;3.83;;;;;16.40;99754.00;;;;5064670;28;20603;-65
2023/08/01 23:29:01;;;;;;;12.73;3.80;;;;;16.30;99751.00;;;;5069518;28;20598;-67
2023/08/01 23:31:47;;;;;;;6.57;3.80;;;;;16.40;99751.00;;;;5068490;28;20677;-65
2023/08/01 23:34:34;;;;;;;6.70;3.60;;;;;16.40;99749.00;;;;5069842;28;20232;-65
2023/08/01 23:37:20;;;;;;;7.57;3.83;;;;;16.30;99744.00;;;;5067215;28;20239;-64
2023/08/01 23:40:08;;;;;;;7.93;3.83;;;;;16.40;99745.00;;;;5066405;28;20692;-65
2023/08/01 23:42:54;;;;;;;8.67;3.80;;;;;16.40;99742.00;;;;5072249;28;20227;-65
2023/08/01 23:45:49;;;;;;;6.77;3.47;;;;;16.30;99743.00;;;;5077768;28;20232;-66
2023/08/01 23:48:36;;;;;;;7.23;3.63;;;;;16.40;99734.00;;;;5075896;28;20227;-64
2023/08/01 23:51:22;;;;;;;8.90;3.70;;;;;16.40;99730.00;;;;5068342;28;20251;-66
2023/08/01 23:54:09;;;;;;;15.00;4.27;;;;;16.40;99720.00;;;;5073394;28;20759;-66
2023/08/01 23:56:56;;;;;;;5.33;3.40;;;;;16.50;99721.00;;;;5079175;28;20350;-66
2023/08/01 23:59:42;;;;;;;9.73;4.03;;;;;16.50;99715.00;;;;5073487;28;20307;-65
